Tin Stanisic

Recruteur - HNK Rijeka
3 Déc 2028
Dimanche
Processus

Personnalité

Adaptabilité (16) Ambition (5) Controverse (2) Loyauté (8) Pression (1) Professionnalisme (3) Sportivité (4) Tempérament (20)

Profil

Style d'entraînement Démocratique
Diplôme National A
Détermination 8
Gestion des joueurs 9
Motivation 7
Discipline 13
Satisfaction professionnelle
100%
Fatigue
0%
Rôle Recruteur
Salaire 60.5K p/s
Contrat 14.03.2029

Performance

Comportement Bon
Efficacité de l'entraînement
31%
Développement des joueurs
50%
Prévention des blessures
35%
Mise en place tactique
20%

Événements récents

A participé à une réunion de recrutement maintenant
A recommandé une cible de transfert maintenant
A participé à une réunion de recrutement 7j
A recommandé une cible de transfert 7j
A participé à une réunion de recrutement 7j
A recommandé une cible de transfert 7j
A participé à une réunion de recrutement 14j
A recommandé une cible de transfert 14j

Suivi en cours

59
Joueur Club Statut Capacité Confiance Observé Dernière observation Dernier vote
Imran Oulad Omar Dinamo Batumi Actif 128 / 119 40% 1 21.08.2028 -
Agustín Sández Newell's Old Boys Perdu 116 / 131 40% 1 21.08.2028 -
Marko Vukovic Zadar Actif 124 / 121 58% 1 31.07.2028 Approuver
André Wolverhampton Actif 152 / 157 40% 1 31.07.2028 -
Lee Buchanan Sheffield Wednesday Actif 134 / 134 40% 1 31.07.2028 -
Téo Barišić Hrvatski Dragovoljac Actif 120 / 110 58% 1 01.06.2028 Approuver
Neco Williams Wrexham Actif 148 / 150 40% 1 31.05.2028 -
Ben Nelson Leicester City Actif 136 / 133 40% 1 31.05.2028 -
Stefan Vukić Rudes Actif 104 / 96 58% 1 01.01.2028 -
Victor Hernandez Santa Fe Actif 131 / 121 40% 3 31.12.2027 -
Edwin Asamoah Berekum Chelsea Actif 77 / 96 40% 1 29.05.2027 -
Riley Owen Stevenage Actif 93 / 108 40% 2 25.05.2027 -
Charlie Gray Fleetwood Town Actif 94 / 91 40% 1 21.05.2027 -
Bernardo Lima Porto Actif 89 / 103 40% 2 11.05.2027 -
Sascha Britschgi AC Milan Actif 124 / 126 40% 1 05.05.2027 -
Maldini Kacurri Grimsby Town Actif 89 / 103 40% 1 04.05.2027 -
Bade Aluko Leicester City Actif 119 / 126 40% 1 03.05.2027 -
Samuele di Benedetto Twente Actif 113 / 113 40% 1 01.05.2027 -
Jan Bürger Northampton Town Actif 103 / 120 40% 1 25.04.2027 -
Leandro Martins Benfica Actif 93 / 95 40% 1 18.04.2027 -
Ezra Mayers West Ham United Actif 112 / 129 40% 1 17.04.2027 -
Rivaldo Mkhize Black Aces Actif 65 / 73 40% 1 15.04.2027 -
Matteo Pérez Vinlöf Dinamo Zagreb Actif 134 / 133 40% 1 12.04.2027 -
Ognjen Bakić HNK Gorica Actif 97 / 117 51% 1 01.01.2027 -
Tomáš Souček West Ham United Actif 137 / 128 40% 1 31.12.2026 -
Davor Matijaš HNK Gorica Actif 99 / 110 40% 4 30.12.2026 -
Marko Galić Cibalia Actif 112 / 92 40% 3 30.12.2026 -
Anthony Patterson Wrexham Actif 139 / 122 40% 2 26.12.2026 -
Jordan Amissah Burton Albion Actif 89 / 102 40% 2 23.12.2026 -
Murphy Cooper Plymouth Argyle Actif 103 / 118 40% 1 23.12.2026 -
Fran Vieites Walsall Actif 130 / 124 40% 1 22.12.2026 -
Arthur Beroe Actif 102 / 103 40% 1 12.12.2026 -
Elia Caprile Cagliari Actif 142 / 136 40% 1 10.12.2026 -
Karlo Sentić Slaven Belupo Actif 117 / 93 40% 1 09.12.2026 -
Itumeleng Grobler Free State Stars Actif 89 / 88 40% 1 04.12.2026 -
Matevž Vidovšek Olimpija Ljubljana Actif 107 / 108 40% 2 02.12.2026 -
Patrick Schulte Columbus Crew Actif 127 / 124 40% 1 01.12.2026 -
Maksym Kovaliov Spartak 1918 Actif 106 / 106 40% 1 30.11.2026 -
Karlo Žiger Sesvete Actif 91 / 90 40% 2 29.11.2026 -
Franko Kolić Istra 1961 Actif 121 / 117 40% 1 29.11.2026 -
Bogdan Ovsyannikov Orenburg Actif 100 / 105 40% 1 23.11.2026 -
Ştefan Târnovanu CFR Cluj Actif 112 / 110 40% 1 18.11.2026 -
Martin Trnovský Podbrezova Actif 98 / 98 40% 2 16.11.2026 -
Oliver Petersen Odd Actif 132 / 121 40% 1 13.11.2026 -
Samuel Brolin Kalmar FF Actif 97 / 130 40% 1 11.11.2026 -
Roman Celentano FC Cincinnati Actif 133 / 133 40% 1 09.11.2026 -
Mate Modric Zadar Actif 105 / 111 40% 1 07.11.2026 Plus d'infos
Harrison Owusu Wa All Stars Actif 91 / 92 40% 1 05.11.2026 -
Sławomir Abramowicz Jagiellonia Actif 127 / 117 40% 1 05.11.2026 -
John Pulskamp Sporting Kansas City Actif 104 / 118 40% 1 04.11.2026 -
Luka Baš Koper Actif 98 / 97 40% 1 03.11.2026 -
Ameh Godwin Nasarawa United Actif 100 / 104 40% 1 02.11.2026 -
Lukas Gütlbauer Wolfsberger AC Actif 105 / 107 40% 1 02.11.2026 -
Diego Enríquez Sporting Cristal Actif 123 / 139 40% 1 16.09.2026 -
Ani Ozoemena Rivers United Actif 86 / 108 40% 1 12.09.2026 -
Keisuke Osako Sanfrecce Hiroshima Actif 125 / 147 40% 1 11.09.2026 -
Richard Ludha MFK Skalica Actif 97 / 117 40% 1 08.09.2026 -
Pascal Struijk Brighton Actif 150 / 146 40% 1 01.08.2026 -
Omar El Hilali Espanyol Actif 152 / 136 40% 1 01.08.2026 -